Kaktovik, AK

5:38 AM AKDT on October 24, 2014 (GMT -0800)
Barter Island LRRS | Change Station
CLOSE
Current Station
Airport
Location: Barter Island,
Elevation: 7 ft
Nearby Weather Stations

Elev 7 ft 70.13 °N, 143.58 °W | Updated 37 minutes ago

Light Snow
Light Snow
21 °F
Feels Like 12 °F
N
7
Wind Variable Wind from SE

Today
High -- | Low -- °F
--% Chance of Precip.
Yesterday
High -- | Low -- °F
Precip. -- in
9:29 AM 5:06 PM
New Moon, 0% visible
Pressure 29.80 in
Visibility 7.0 miles
Clouds Few 1400 ft
Overcast 2400 ft
Windchill 12 °F
Dew Point 18 °F
Humidity 88%
Rainfall 0.00 in
Snow Depth Not available.
UV 0 out of 12
Pollen Not available.
Air Quality Not available.
Flu Activity Sporadic
METAR PABA 241301Z AUTO 14006KT 7SM -SN FEW014 OVC024 M06/M08 A2980 RMK AO2 SLP090 P0000 T10611078 FZRANO

More Conditions Fewer Conditions

Pressure 29.80 in
Visibility 7.0 miles
Clouds Few 1400 ft
Overcast 2400 ft
Windchill 12 °F
Dew Point 18 °F
Humidity 88%
Rainfall 0.00 in
Snow Depth Not available.
UV 0 out of 12
Pollen Not available.
Air Quality Not available.
Flu Activity Sporadic
METAR PABA 241301Z AUTO 14006KT 7SM -SN FEW014 OVC024 M06/M08 A2980 RMK AO2 SLP090 P0000 T10611078 FZRANO

More Conditions Fewer Conditions

10-Day Weather Forecast

Almanac

Astronomy

Oct. 24, 2014 Rise Set
Actual Time 9:29 AM AKDT 5:06 PM AKDT
Civil Twilight 8:20 AM AKDT 6:14 PM AKDT
Nautical Twilight 7:08 AM AKDT 7:26 PM AKDT
Astronomical Twilight 5:56 AM AKDT 8:37 PM AKDT
Moon 10:47 AM AKDT 5:14 PM AKDT
Length of Visible Light 9h 53m
Length of Day
7h 37m
Tomorrow will be 9m 31s shorter.
New Moon, 0% of the Moon is Illuminated
Today
New Moon
Oct 30
First Quarter
Nov 6
Full
Nov 14
Last Quarter
Nov 22
New

Today's Extremes

State Highs State Lows

Community

WunderPhotos

Upload Photos

1,764,550 photos uploaded!

WunderBlogs® & News

Nearby

Snow Depth

Station Depth Elevation
Imnaviat Creek 22 in 3050 ft
Atigun Pass 15 in 4800 ft
Fort Yukon 3 in 430 ft
Coldfoot 4 in 1040 ft
Gobblers Knob 1 in 2030 ft

Earthquake Activity

City Distance Mag. Time & Date
No recent earthquake activity has been reported nearby.
Minimum magnitude displayed is 2.5.

Coastal Water Temperatures

Place Temperature
No Stations Reporting

Nearby Weather Stations